sensor_id;sensor_type;location;lat;lon;timestamp;P1;durP1;ratioP1;P2;durP2;ratioP2
63007;SDS011;49266;47.552;19.078;2022-11-15T00:02:35;198.88;;;34.53;;
63007;SDS011;49266;47.552;19.078;2022-11-15T00:07:15;117.22;;;32.83;;
63007;SDS011;49266;47.552;19.078;2022-11-15T00:11:56;125.45;;;33.25;;
63007;SDS011;49266;47.552;19.078;2022-11-15T00:16:36;149.18;;;31.77;;
63007;SDS011;49266;47.552;19.078;2022-11-15T00:21:16;91.45;;;32.13;;
63007;SDS011;49266;47.552;19.078;2022-11-15T00:25:57;153.60;;;33.15;;
63007;SDS011;49266;47.552;19.078;2022-11-15T00:30:37;164.77;;;33.90;;
63007;SDS011;49266;47.552;19.078;2022-11-15T00:35:18;94.55;;;32.08;;
63007;SDS011;49266;47.552;19.078;2022-11-15T00:39:58;147.07;;;29.67;;
63007;SDS011;49266;47.552;19.078;2022-11-15T00:44:38;121.28;;;30.67;;
63007;SDS011;49266;47.552;19.078;2022-11-15T00:49:18;117.95;;;31.70;;
63007;SDS011;49266;47.552;19.078;2022-11-15T00:53:58;172.30;;;33.40;;
63007;SDS011;49266;47.552;19.078;2022-11-15T00:58:39;200.43;;;32.05;;
63007;SDS011;49266;47.552;19.078;2022-11-15T01:03:19;144.50;;;31.65;;
63007;SDS011;49266;47.552;19.078;2022-11-15T01:07:59;170.88;;;30.83;;
63007;SDS011;49266;47.552;19.078;2022-11-15T01:12:39;106.55;;;30.45;;
63007;SDS011;49266;47.552;19.078;2022-11-15T01:17:19;93.15;;;31.58;;
63007;SDS011;49266;47.552;19.078;2022-11-15T01:22:00;72.10;;;29.95;;
63007;SDS011;49266;47.552;19.078;2022-11-15T01:26:40;136.77;;;34.95;;
63007;SDS011;49266;47.552;19.078;2022-11-15T01:31:20;103.25;;;35.65;;
63007;SDS011;49266;47.552;19.078;2022-11-15T01:36:04;86.78;;;35.08;;
63007;SDS011;49266;47.552;19.078;2022-11-15T01:40:45;112.65;;;33.63;;
63007;SDS011;49266;47.552;19.078;2022-11-15T01:45:25;100.10;;;36.78;;
63007;SDS011;49266;47.552;19.078;2022-11-15T01:50:07;101.72;;;37.63;;
63007;SDS011;49266;47.552;19.078;2022-11-15T01:54:48;101.57;;;35.17;;
63007;SDS011;49266;47.552;19.078;2022-11-15T01:59:30;77.35;;;36.92;;
63007;SDS011;49266;47.552;19.078;2022-11-15T02:04:18;87.50;;;34.58;;
63007;SDS011;49266;47.552;19.078;2022-11-15T02:09:00;74.55;;;33.17;;
63007;SDS011;49266;47.552;19.078;2022-11-15T02:13:40;101.55;;;31.27;;
63007;SDS011;49266;47.552;19.078;2022-11-15T02:27:59;71.93;;;30.27;;
63007;SDS011;49266;47.552;19.078;2022-11-15T02:38:05;84.00;;;29.17;;
63007;SDS011;49266;47.552;19.078;2022-11-15T02:43:00;62.22;;;29.02;;
63007;SDS011;49266;47.552;19.078;2022-11-15T02:48:00;80.45;;;28.40;;
63007;SDS011;49266;47.552;19.078;2022-11-15T02:52:41;85.10;;;29.75;;
63007;SDS011;49266;47.552;19.078;2022-11-15T02:57:51;89.28;;;29.45;;
63007;SDS011;49266;47.552;19.078;2022-11-15T03:07:16;57.45;;;27.20;;
63007;SDS011;49266;47.552;19.078;2022-11-15T03:12:41;56.83;;;26.63;;
63007;SDS011;49266;47.552;19.078;2022-11-15T03:17:03;50.80;;;25.58;;
63007;SDS011;49266;47.552;19.078;2022-11-15T03:21:45;56.13;;;25.80;;
63007;SDS011;49266;47.552;19.078;2022-11-15T03:26:25;53.83;;;25.05;;
63007;SDS011;49266;47.552;19.078;2022-11-15T03:31:06;52.03;;;25.60;;
63007;SDS011;49266;47.552;19.078;2022-11-15T03:36:07;46.13;;;25.02;;
63007;SDS011;49266;47.552;19.078;2022-11-15T03:40:49;48.05;;;24.05;;
63007;SDS011;49266;47.552;19.078;2022-11-15T03:45:31;42.25;;;22.33;;
63007;SDS011;49266;47.552;19.078;2022-11-15T03:50:16;41.65;;;22.88;;
63007;SDS011;49266;47.552;19.078;2022-11-15T03:54:57;45.03;;;22.95;;
63007;SDS011;49266;47.552;19.078;2022-11-15T03:59:40;42.33;;;22.70;;
63007;SDS011;49266;47.552;19.078;2022-11-15T04:04:20;40.50;;;22.13;;
63007;SDS011;49266;47.552;19.078;2022-11-15T04:09:00;38.92;;;20.63;;
63007;SDS011;49266;47.552;19.078;2022-11-15T04:13:40;38.92;;;21.73;;
63007;SDS011;49266;47.552;19.078;2022-11-15T04:18:20;41.97;;;22.15;;
63007;SDS011;49266;47.552;19.078;2022-11-15T04:23:01;40.50;;;22.77;;
63007;SDS011;49266;47.552;19.078;2022-11-15T04:28:01;47.20;;;26.00;;
63007;SDS011;49266;47.552;19.078;2022-11-15T04:32:41;42.55;;;23.08;;
63007;SDS011;49266;47.552;19.078;2022-11-15T04:37:21;42.92;;;23.63;;
63007;SDS011;49266;47.552;19.078;2022-11-15T04:42:01;43.05;;;23.48;;
63007;SDS011;49266;47.552;19.078;2022-11-15T04:46:42;44.33;;;23.52;;
63007;SDS011;49266;47.552;19.078;2022-11-15T04:51:22;41.35;;;22.08;;
63007;SDS011;49266;47.552;19.078;2022-11-15T04:56:02;39.75;;;22.25;;
63007;SDS011;49266;47.552;19.078;2022-11-15T05:00:42;41.80;;;22.70;;
63007;SDS011;49266;47.552;19.078;2022-11-15T05:05:23;39.78;;;22.80;;
63007;SDS011;49266;47.552;19.078;2022-11-15T05:10:03;37.85;;;22.48;;
63007;SDS011;49266;47.552;19.078;2022-11-15T05:14:44;36.85;;;22.30;;
63007;SDS011;49266;47.552;19.078;2022-11-15T05:19:24;40.72;;;23.60;;
63007;SDS011;49266;47.552;19.078;2022-11-15T05:24:04;40.75;;;22.50;;
63007;SDS011;49266;47.552;19.078;2022-11-15T05:28:45;40.42;;;24.63;;
63007;SDS011;49266;47.552;19.078;2022-11-15T05:33:25;39.67;;;23.50;;
63007;SDS011;49266;47.552;19.078;2022-11-15T05:38:05;42.33;;;23.80;;
63007;SDS011;49266;47.552;19.078;2022-11-15T05:42:46;42.20;;;24.30;;
63007;SDS011;49266;47.552;19.078;2022-11-15T05:47:27;40.63;;;24.88;;
63007;SDS011;49266;47.552;19.078;2022-11-15T05:52:09;41.05;;;23.73;;
63007;SDS011;49266;47.552;19.078;2022-11-15T05:56:50;41.95;;;25.45;;
63007;SDS011;49266;47.552;19.078;2022-11-15T06:01:30;40.30;;;24.98;;
63007;SDS011;49266;47.552;19.078;2022-11-15T06:06:11;46.83;;;27.52;;
63007;SDS011;49266;47.552;19.078;2022-11-15T06:10:51;46.58;;;27.00;;
63007;SDS011;49266;47.552;19.078;2022-11-15T06:15:34;46.00;;;26.52;;
63007;SDS011;49266;47.552;19.078;2022-11-15T06:20:14;44.90;;;26.70;;
63007;SDS011;49266;47.552;19.078;2022-11-15T06:24:54;47.08;;;26.70;;
63007;SDS011;49266;47.552;19.078;2022-11-15T06:29:34;44.15;;;26.85;;
63007;SDS011;49266;47.552;19.078;2022-11-15T06:34:15;58.05;;;31.98;;
63007;SDS011;49266;47.552;19.078;2022-11-15T06:38:56;67.13;;;38.65;;
63007;SDS011;49266;47.552;19.078;2022-11-15T06:43:36;53.63;;;30.70;;
63007;SDS011;49266;47.552;19.078;2022-11-15T06:48:17;52.80;;;30.75;;
63007;SDS011;49266;47.552;19.078;2022-11-15T06:53:00;56.13;;;31.58;;
63007;SDS011;49266;47.552;19.078;2022-11-15T06:57:50;60.22;;;32.35;;
63007;SDS011;49266;47.552;19.078;2022-11-15T07:02:32;51.35;;;30.80;;
63007;SDS011;49266;47.552;19.078;2022-11-15T07:07:12;50.95;;;30.08;;
63007;SDS011;49266;47.552;19.078;2022-11-15T07:11:52;49.75;;;31.10;;
63007;SDS011;49266;47.552;19.078;2022-11-15T07:16:33;44.38;;;27.20;;
63007;SDS011;49266;47.552;19.078;2022-11-15T07:21:13;50.65;;;29.52;;
63007;SDS011;49266;47.552;19.078;2022-11-15T07:25:53;47.47;;;28.95;;
63007;SDS011;49266;47.552;19.078;2022-11-15T07:30:33;49.30;;;29.70;;
63007;SDS011;49266;47.552;19.078;2022-11-15T07:35:13;50.75;;;30.75;;
63007;SDS011;49266;47.552;19.078;2022-11-15T07:39:54;50.55;;;31.90;;
63007;SDS011;49266;47.552;19.078;2022-11-15T07:44:34;41.95;;;26.88;;
63007;SDS011;49266;47.552;19.078;2022-11-15T07:49:14;46.28;;;29.17;;
63007;SDS011;49266;47.552;19.078;2022-11-15T07:53:54;47.63;;;30.23;;
63007;SDS011;49266;47.552;19.078;2022-11-15T07:58:34;49.33;;;30.13;;
63007;SDS011;49266;47.552;19.078;2022-11-15T08:03:15;50.43;;;32.13;;
63007;SDS011;49266;47.552;19.078;2022-11-15T08:07:56;49.55;;;30.33;;
63007;SDS011;49266;47.552;19.078;2022-11-15T08:12:36;49.05;;;30.65;;
63007;SDS011;49266;47.552;19.078;2022-11-15T08:17:16;55.92;;;32.83;;
63007;SDS011;49266;47.552;19.078;2022-11-15T08:21:56;53.90;;;33.80;;
63007;SDS011;49266;47.552;19.078;2022-11-15T08:26:36;46.13;;;29.40;;
63007;SDS011;49266;47.552;19.078;2022-11-15T08:31:17;48.40;;;30.45;;
63007;SDS011;49266;47.552;19.078;2022-11-15T08:35:58;49.22;;;30.20;;
63007;SDS011;49266;47.552;19.078;2022-11-15T08:40:39;51.25;;;31.77;;
63007;SDS011;49266;47.552;19.078;2022-11-15T08:45:19;57.72;;;34.53;;
63007;SDS011;49266;47.552;19.078;2022-11-15T08:49:59;61.63;;;36.70;;
63007;SDS011;49266;47.552;19.078;2022-11-15T08:54:39;70.18;;;39.50;;
63007;SDS011;49266;47.552;19.078;2022-11-15T08:59:20;54.83;;;33.28;;
63007;SDS011;49266;47.552;19.078;2022-11-15T09:04:00;54.88;;;33.65;;
63007;SDS011;49266;47.552;19.078;2022-11-15T09:08:40;56.97;;;35.58;;
63007;SDS011;49266;47.552;19.078;2022-11-15T09:13:20;58.85;;;34.83;;
63007;SDS011;49266;47.552;19.078;2022-11-15T09:18:01;52.95;;;32.92;;
63007;SDS011;49266;47.552;19.078;2022-11-15T09:22:41;58.10;;;34.88;;
63007;SDS011;49266;47.552;19.078;2022-11-15T09:27:21;51.00;;;31.40;;
63007;SDS011;49266;47.552;19.078;2022-11-15T09:32:01;52.58;;;34.55;;
63007;SDS011;49266;47.552;19.078;2022-11-15T09:36:41;56.10;;;35.25;;
63007;SDS011;49266;47.552;19.078;2022-11-15T09:41:46;54.70;;;35.28;;
63007;SDS011;49266;47.552;19.078;2022-11-15T09:46:42;55.33;;;36.47;;
63007;SDS011;49266;47.552;19.078;2022-11-15T09:56:11;55.08;;;35.58;;
63007;SDS011;49266;47.552;19.078;2022-11-15T10:00:53;51.33;;;34.15;;
63007;SDS011;49266;47.552;19.078;2022-11-15T10:05:42;53.63;;;33.20;;
63007;SDS011;49266;47.552;19.078;2022-11-15T10:10:27;51.35;;;32.90;;
63007;SDS011;49266;47.552;19.078;2022-11-15T10:15:11;53.72;;;33.95;;
63007;SDS011;49266;47.552;19.078;2022-11-15T10:24:34;52.22;;;33.88;;
63007;SDS011;49266;47.552;19.078;2022-11-15T10:29:19;53.45;;;34.47;;
63007;SDS011;49266;47.552;19.078;2022-11-15T10:34:13;58.03;;;35.50;;
63007;SDS011;49266;47.552;19.078;2022-11-15T10:38:54;55.22;;;35.22;;
63007;SDS011;49266;47.552;19.078;2022-11-15T10:43:35;57.15;;;36.25;;
63007;SDS011;49266;47.552;19.078;2022-11-15T10:52:58;59.35;;;35.72;;
63007;SDS011;49266;47.552;19.078;2022-11-15T10:57:40;64.80;;;35.40;;
63007;SDS011;49266;47.552;19.078;2022-11-15T11:02:30;56.97;;;35.72;;
63007;SDS011;49266;47.552;19.078;2022-11-15T11:07:19;56.53;;;37.03;;
63007;SDS011;49266;47.552;19.078;2022-11-15T11:12:00;58.20;;;35.78;;
63007;SDS011;49266;47.552;19.078;2022-11-15T11:16:42;57.30;;;36.38;;
63007;SDS011;49266;47.552;19.078;2022-11-15T11:21:25;57.30;;;37.78;;
63007;SDS011;49266;47.552;19.078;2022-11-15T11:26:18;55.42;;;36.60;;
63007;SDS011;49266;47.552;19.078;2022-11-15T11:35:58;53.15;;;35.70;;
63007;SDS011;49266;47.552;19.078;2022-11-15T11:40:41;53.53;;;36.17;;
63007;SDS011;49266;47.552;19.078;2022-11-15T11:46:05;55.90;;;36.22;;
63007;SDS011;49266;47.552;19.078;2022-11-15T11:50:29;57.22;;;34.90;;
63007;SDS011;49266;47.552;19.078;2022-11-15T11:55:19;58.13;;;38.13;;
63007;SDS011;49266;47.552;19.078;2022-11-15T12:00:20;62.78;;;38.83;;
63007;SDS011;49266;47.552;19.078;2022-11-15T12:05:03;60.50;;;37.28;;
63007;SDS011;49266;47.552;19.078;2022-11-15T12:19:28;54.70;;;36.10;;
63007;SDS011;49266;47.552;19.078;2022-11-15T12:24:14;59.08;;;36.75;;
63007;SDS011;49266;47.552;19.078;2022-11-15T12:29:00;57.08;;;35.40;;
63007;SDS011;49266;47.552;19.078;2022-11-15T12:33:43;60.00;;;35.80;;
63007;SDS011;49266;47.552;19.078;2022-11-15T12:43:35;55.10;;;33.33;;
63007;SDS011;49266;47.552;19.078;2022-11-15T12:57:55;53.25;;;33.08;;
63007;SDS011;49266;47.552;19.078;2022-11-15T13:07:55;59.42;;;37.20;;
63007;SDS011;49266;47.552;19.078;2022-11-15T13:17:34;63.97;;;38.72;;
63007;SDS011;49266;47.552;19.078;2022-11-15T13:22:15;73.28;;;41.50;;
63007;SDS011;49266;47.552;19.078;2022-11-15T13:27:14;73.90;;;41.53;;
63007;SDS011;49266;47.552;19.078;2022-11-15T13:31:55;69.95;;;41.40;;
63007;SDS011;49266;47.552;19.078;2022-11-15T13:36:36;70.10;;;41.47;;
63007;SDS011;49266;47.552;19.078;2022-11-15T13:50:45;70.18;;;40.80;;
63007;SDS011;49266;47.552;19.078;2022-11-15T13:55:26;64.13;;;38.95;;
63007;SDS011;49266;47.552;19.078;2022-11-15T14:00:23;56.53;;;34.25;;
63007;SDS011;49266;47.552;19.078;2022-11-15T14:09:56;63.38;;;38.83;;
63007;SDS011;49266;47.552;19.078;2022-11-15T14:14:44;65.22;;;38.25;;
63007;SDS011;49266;47.552;19.078;2022-11-15T14:24:14;58.97;;;36.38;;
63007;SDS011;49266;47.552;19.078;2022-11-15T14:28:55;63.47;;;37.38;;
63007;SDS011;49266;47.552;19.078;2022-11-15T14:33:36;68.28;;;40.10;;
63007;SDS011;49266;47.552;19.078;2022-11-15T14:38:16;62.80;;;36.53;;
63007;SDS011;49266;47.552;19.078;2022-11-15T14:42:56;61.30;;;35.08;;
63007;SDS011;49266;47.552;19.078;2022-11-15T14:47:37;62.15;;;36.90;;
63007;SDS011;49266;47.552;19.078;2022-11-15T14:57:03;65.57;;;36.67;;
63007;SDS011;49266;47.552;19.078;2022-11-15T15:01:43;60.17;;;35.85;;
63007;SDS011;49266;47.552;19.078;2022-11-15T15:06:24;57.28;;;35.33;;
63007;SDS011;49266;47.552;19.078;2022-11-15T15:11:07;58.00;;;33.33;;
63007;SDS011;49266;47.552;19.078;2022-11-15T15:15:50;58.83;;;32.30;;
63007;SDS011;49266;47.552;19.078;2022-11-15T15:20:31;52.72;;;29.70;;
63007;SDS011;49266;47.552;19.078;2022-11-15T15:25:27;50.42;;;30.30;;
63007;SDS011;49266;47.552;19.078;2022-11-15T15:30:08;56.30;;;31.07;;
63007;SDS011;49266;47.552;19.078;2022-11-15T15:34:48;53.03;;;31.25;;
63007;SDS011;49266;47.552;19.078;2022-11-15T15:39:29;53.55;;;31.63;;
63007;SDS011;49266;47.552;19.078;2022-11-15T15:44:09;55.03;;;32.08;;
63007;SDS011;49266;47.552;19.078;2022-11-15T15:48:49;48.17;;;28.85;;
63007;SDS011;49266;47.552;19.078;2022-11-15T15:53:29;51.67;;;30.27;;
63007;SDS011;49266;47.552;19.078;2022-11-15T15:58:10;56.03;;;30.73;;
63007;SDS011;49266;47.552;19.078;2022-11-15T16:02:51;49.33;;;29.63;;
63007;SDS011;49266;47.552;19.078;2022-11-15T16:07:31;49.50;;;29.75;;
63007;SDS011;49266;47.552;19.078;2022-11-15T16:12:11;46.50;;;28.50;;
63007;SDS011;49266;47.552;19.078;2022-11-15T16:16:52;47.13;;;28.23;;
63007;SDS011;49266;47.552;19.078;2022-11-15T16:21:32;48.10;;;28.45;;
63007;SDS011;49266;47.552;19.078;2022-11-15T16:26:19;47.25;;;28.33;;
63007;SDS011;49266;47.552;19.078;2022-11-15T16:35:40;53.58;;;30.05;;
63007;SDS011;49266;47.552;19.078;2022-11-15T16:40:30;51.65;;;30.05;;
63007;SDS011;49266;47.552;19.078;2022-11-15T16:45:11;57.60;;;30.80;;
63007;SDS011;49266;47.552;19.078;2022-11-15T16:49:51;58.72;;;31.88;;
63007;SDS011;49266;47.552;19.078;2022-11-15T16:54:31;56.10;;;30.40;;
63007;SDS011;49266;47.552;19.078;2022-11-15T16:59:14;60.83;;;32.92;;
63007;SDS011;49266;47.552;19.078;2022-11-15T17:03:54;60.10;;;33.38;;
63007;SDS011;49266;47.552;19.078;2022-11-15T17:08:34;66.32;;;34.00;;
63007;SDS011;49266;47.552;19.078;2022-11-15T17:13:15;61.60;;;33.55;;
63007;SDS011;49266;47.552;19.078;2022-11-15T17:17:55;65.75;;;33.08;;
63007;SDS011;49266;47.552;19.078;2022-11-15T17:22:36;61.47;;;33.72;;
63007;SDS011;49266;47.552;19.078;2022-11-15T17:27:16;62.40;;;33.80;;
63007;SDS011;49266;47.552;19.078;2022-11-15T17:31:56;68.47;;;33.72;;
63007;SDS011;49266;47.552;19.078;2022-11-15T17:36:36;65.25;;;34.28;;
63007;SDS011;49266;47.552;19.078;2022-11-15T17:41:16;66.57;;;35.05;;
63007;SDS011;49266;47.552;19.078;2022-11-15T17:45:57;72.50;;;35.72;;
63007;SDS011;49266;47.552;19.078;2022-11-15T17:50:38;81.07;;;39.35;;
63007;SDS011;49266;47.552;19.078;2022-11-15T17:55:18;78.70;;;39.70;;
63007;SDS011;49266;47.552;19.078;2022-11-15T17:59:58;82.65;;;39.85;;
63007;SDS011;49266;47.552;19.078;2022-11-15T18:04:38;74.65;;;38.30;;
63007;SDS011;49266;47.552;19.078;2022-11-15T18:09:19;83.55;;;40.22;;
63007;SDS011;49266;47.552;19.078;2022-11-15T18:14:01;90.82;;;42.28;;
63007;SDS011;49266;47.552;19.078;2022-11-15T18:18:42;82.28;;;39.78;;
63007;SDS011;49266;47.552;19.078;2022-11-15T18:23:22;80.82;;;40.30;;
63007;SDS011;49266;47.552;19.078;2022-11-15T18:28:02;70.55;;;36.85;;
63007;SDS011;49266;47.552;19.078;2022-11-15T18:32:43;73.40;;;37.63;;
63007;SDS011;49266;47.552;19.078;2022-11-15T18:37:23;81.13;;;39.50;;
63007;SDS011;49266;47.552;19.078;2022-11-15T18:42:03;81.40;;;40.22;;
63007;SDS011;49266;47.552;19.078;2022-11-15T18:46:43;85.35;;;40.53;;
63007;SDS011;49266;47.552;19.078;2022-11-15T18:51:25;85.07;;;41.90;;
63007;SDS011;49266;47.552;19.078;2022-11-15T18:56:06;90.03;;;42.80;;
63007;SDS011;49266;47.552;19.078;2022-11-15T19:00:47;80.30;;;40.47;;
63007;SDS011;49266;47.552;19.078;2022-11-15T19:05:27;83.45;;;40.38;;
63007;SDS011;49266;47.552;19.078;2022-11-15T19:10:07;85.32;;;40.10;;
63007;SDS011;49266;47.552;19.078;2022-11-15T19:14:49;85.38;;;40.22;;
63007;SDS011;49266;47.552;19.078;2022-11-15T19:19:30;85.90;;;41.28;;
63007;SDS011;49266;47.552;19.078;2022-11-15T19:24:10;91.15;;;42.35;;
63007;SDS011;49266;47.552;19.078;2022-11-15T19:28:51;91.68;;;40.67;;
63007;SDS011;49266;47.552;19.078;2022-11-15T19:33:31;89.68;;;40.70;;
63007;SDS011;49266;47.552;19.078;2022-11-15T19:38:12;92.30;;;40.35;;
63007;SDS011;49266;47.552;19.078;2022-11-15T19:42:53;95.72;;;41.28;;
63007;SDS011;49266;47.552;19.078;2022-11-15T19:47:33;101.97;;;43.60;;
63007;SDS011;49266;47.552;19.078;2022-11-15T19:52:13;96.63;;;41.33;;
63007;SDS011;49266;47.552;19.078;2022-11-15T19:56:53;90.25;;;41.80;;
63007;SDS011;49266;47.552;19.078;2022-11-15T20:01:34;99.45;;;41.67;;
63007;SDS011;49266;47.552;19.078;2022-11-15T20:06:16;99.32;;;41.30;;
63007;SDS011;49266;47.552;19.078;2022-11-15T20:10:56;100.60;;;41.35;;
63007;SDS011;49266;47.552;19.078;2022-11-15T20:15:37;106.13;;;43.78;;
63007;SDS011;49266;47.552;19.078;2022-11-15T20:20:17;99.93;;;41.28;;
63007;SDS011;49266;47.552;19.078;2022-11-15T20:24:57;113.65;;;42.08;;
63007;SDS011;49266;47.552;19.078;2022-11-15T20:29:37;110.80;;;44.42;;
63007;SDS011;49266;47.552;19.078;2022-11-15T20:34:18;114.90;;;44.92;;
63007;SDS011;49266;47.552;19.078;2022-11-15T20:38:58;108.78;;;44.17;;
63007;SDS011;49266;47.552;19.078;2022-11-15T20:43:38;113.35;;;44.00;;
63007;SDS011;49266;47.552;19.078;2022-11-15T20:48:22;116.32;;;42.90;;
63007;SDS011;49266;47.552;19.078;2022-11-15T20:53:02;99.30;;;41.63;;
63007;SDS011;49266;47.552;19.078;2022-11-15T20:57:42;87.18;;;39.78;;
63007;SDS011;49266;47.552;19.078;2022-11-15T21:02:22;103.78;;;40.20;;
63007;SDS011;49266;47.552;19.078;2022-11-15T21:07:02;100.43;;;39.75;;
63007;SDS011;49266;47.552;19.078;2022-11-15T21:11:43;91.18;;;38.08;;
63007;SDS011;49266;47.552;19.078;2022-11-15T21:16:41;89.93;;;39.25;;
63007;SDS011;49266;47.552;19.078;2022-11-15T21:21:22;88.43;;;35.85;;
63007;SDS011;49266;47.552;19.078;2022-11-15T21:26:02;93.05;;;39.20;;
63007;SDS011;49266;47.552;19.078;2022-11-15T21:30:50;91.63;;;38.53;;
63007;SDS011;49266;47.552;19.078;2022-11-15T21:35:31;93.85;;;39.40;;
63007;SDS011;49266;47.552;19.078;2022-11-15T21:40:11;88.80;;;36.85;;
63007;SDS011;49266;47.552;19.078;2022-11-15T21:44:52;88.80;;;39.60;;
63007;SDS011;49266;47.552;19.078;2022-11-15T21:49:32;83.40;;;38.00;;
63007;SDS011;49266;47.552;19.078;2022-11-15T21:54:12;96.43;;;38.53;;
63007;SDS011;49266;47.552;19.078;2022-11-15T21:58:53;99.65;;;41.58;;
63007;SDS011;49266;47.552;19.078;2022-11-15T22:03:34;101.57;;;40.42;;
63007;SDS011;49266;47.552;19.078;2022-11-15T22:08:14;92.38;;;39.45;;
63007;SDS011;49266;47.552;19.078;2022-11-15T22:12:54;96.65;;;39.10;;
63007;SDS011;49266;47.552;19.078;2022-11-15T22:17:34;95.07;;;39.88;;
63007;SDS011;49266;47.552;19.078;2022-11-15T22:22:33;105.55;;;41.88;;
63007;SDS011;49266;47.552;19.078;2022-11-15T22:27:13;98.72;;;38.42;;
63007;SDS011;49266;47.552;19.078;2022-11-15T22:31:53;90.22;;;37.55;;
63007;SDS011;49266;47.552;19.078;2022-11-15T22:36:33;87.38;;;37.65;;
63007;SDS011;49266;47.552;19.078;2022-11-15T22:41:13;88.88;;;38.05;;
63007;SDS011;49266;47.552;19.078;2022-11-15T22:45:54;88.22;;;37.75;;
63007;SDS011;49266;47.552;19.078;2022-11-15T22:50:34;90.22;;;38.08;;
63007;SDS011;49266;47.552;19.078;2022-11-15T22:55:15;99.55;;;39.53;;
63007;SDS011;49266;47.552;19.078;2022-11-15T22:59:55;88.28;;;38.72;;
63007;SDS011;49266;47.552;19.078;2022-11-15T23:04:35;90.95;;;38.20;;
63007;SDS011;49266;47.552;19.078;2022-11-15T23:09:15;90.75;;;38.25;;
63007;SDS011;49266;47.552;19.078;2022-11-15T23:13:55;94.60;;;38.13;;
63007;SDS011;49266;47.552;19.078;2022-11-15T23:18:36;93.43;;;38.60;;
63007;SDS011;49266;47.552;19.078;2022-11-15T23:23:17;97.88;;;39.47;;
63007;SDS011;49266;47.552;19.078;2022-11-15T23:27:57;104.05;;;40.97;;
63007;SDS011;49266;47.552;19.078;2022-11-15T23:32:37;100.55;;;40.95;;
63007;SDS011;49266;47.552;19.078;2022-11-15T23:37:36;106.97;;;41.20;;
63007;SDS011;49266;47.552;19.078;2022-11-15T23:42:16;110.53;;;42.58;;
63007;SDS011;49266;47.552;19.078;2022-11-15T23:46:58;93.25;;;40.38;;
63007;SDS011;49266;47.552;19.078;2022-11-15T23:51:38;91.88;;;39.60;;
63007;SDS011;49266;47.552;19.078;2022-11-15T23:56:20;90.63;;;37.95;;
